createdAt,value
2022-08-26T00:01:44.187Z,7.70
2022-08-26T00:04:12.428Z,8.80
2022-08-26T00:06:42.287Z,8.48
2022-08-26T00:09:09.883Z,7.93
2022-08-26T00:11:37.007Z,7.80
2022-08-26T00:14:03.792Z,8.15
2022-08-26T00:16:31.938Z,7.40
2022-08-26T00:18:58.964Z,9.88
2022-08-26T00:21:25.575Z,8.65
2022-08-26T00:23:52.211Z,6.80
2022-08-26T00:26:19.145Z,8.43
2022-08-26T00:28:47.578Z,8.27
2022-08-26T00:31:14.618Z,8.02
2022-08-26T00:33:41.955Z,7.35
2022-08-26T00:36:09.537Z,7.57
2022-08-26T00:38:46.821Z,7.63
2022-08-26T00:41:13.508Z,6.97
2022-08-26T00:43:47.709Z,7.72
2022-08-26T00:46:21.762Z,7.55
2022-08-26T00:48:52.266Z,8.68
2022-08-26T00:51:24.766Z,7.80
2022-08-26T00:54:05.590Z,8.30
2022-08-26T00:56:41.589Z,7.95
2022-08-26T00:59:11.920Z,8.13
2022-08-26T01:01:41.308Z,7.47
2022-08-26T01:04:09.811Z,7.97
2022-08-26T01:06:36.703Z,8.10
2022-08-26T01:09:04.464Z,7.72
2022-08-26T01:11:32.550Z,7.47
2022-08-26T01:14:02.739Z,7.90
2022-08-26T01:16:30.632Z,8.50
2022-08-26T01:19:06.498Z,7.40
2022-08-26T01:21:41.237Z,7.32
2022-08-26T01:24:10.372Z,8.05
2022-08-26T01:26:41.375Z,8.40
2022-08-26T01:29:13.186Z,7.93
2022-08-26T01:31:45.973Z,7.68
2022-08-26T01:34:30.419Z,8.38
2022-08-26T01:37:13.668Z,7.97
2022-08-26T01:39:44.876Z,7.82
2022-08-26T01:42:14.653Z,7.50
2022-08-26T01:44:56.472Z,7.82
2022-08-26T01:47:26.546Z,7.63
2022-08-26T01:49:55.323Z,8.15
2022-08-26T01:52:28.241Z,7.53
2022-08-26T01:54:56.869Z,7.85
2022-08-26T01:57:24.661Z,7.43
2022-08-26T01:59:55.197Z,6.70
2022-08-26T02:02:23.393Z,8.83
2022-08-26T02:04:57.354Z,9.00
2022-08-26T02:07:26.668Z,7.90
2022-08-26T02:09:54.057Z,7.15
2022-08-26T02:12:21.111Z,7.70
2022-08-26T02:14:53.736Z,8.00
2022-08-26T02:19:50.780Z,8.73
2022-08-26T02:22:22.785Z,8.93
2022-08-26T02:25:06.973Z,8.20
2022-08-26T02:27:35.765Z,9.65
2022-08-26T02:30:32.610Z,8.15
2022-08-26T02:33:03.747Z,8.27
2022-08-26T02:35:32.562Z,7.53
2022-08-26T02:38:00.360Z,7.72
2022-08-26T02:40:31.649Z,7.10
2022-08-26T02:42:58.486Z,6.80
2022-08-26T02:45:28.951Z,7.47
2022-08-26T02:47:58.545Z,7.32
2022-08-26T02:50:26.954Z,7.85
2022-08-26T02:52:53.752Z,7.60
2022-08-26T02:55:20.583Z,7.85
2022-08-26T02:57:47.212Z,8.00
2022-08-26T03:00:15.460Z,6.88
2022-08-26T03:02:42.268Z,6.47
2022-08-26T03:05:09.770Z,7.85
2022-08-26T03:07:36.382Z,7.07
2022-08-26T03:10:08.311Z,7.93
2022-08-26T03:12:35.758Z,7.43
2022-08-26T03:15:02.518Z,7.70
2022-08-26T03:17:46.371Z,7.55
2022-08-26T03:20:13.666Z,8.98
2022-08-26T03:22:42.850Z,8.25
2022-08-26T03:25:12.900Z,7.75
2022-08-26T03:27:41.585Z,9.23
2022-08-26T03:30:30.736Z,6.93
2022-08-26T03:32:57.714Z,8.73
2022-08-26T03:35:25.896Z,7.20
2022-08-26T03:37:53.590Z,7.88
2022-08-26T03:40:21.636Z,8.55
2022-08-26T03:42:49.227Z,7.90
2022-08-26T03:45:17.218Z,8.30
2022-08-26T03:47:48.009Z,8.02
2022-08-26T03:50:22.586Z,8.05
2022-08-26T03:52:51.917Z,7.72
2022-08-26T03:55:19.961Z,8.13
2022-08-26T03:57:50.826Z,7.90
2022-08-26T04:00:18.673Z,8.32
2022-08-26T04:02:48.893Z,9.40
2022-08-26T04:05:17.619Z,7.68
2022-08-26T04:07:44.735Z,7.93
2022-08-26T04:10:13.606Z,8.68
2022-08-26T04:12:42.434Z,9.10
2022-08-26T04:15:13.698Z,7.50
2022-08-26T04:17:40.982Z,7.20
2022-08-26T04:20:09.025Z,8.90
2022-08-26T04:22:35.767Z,8.75
2022-08-26T04:25:02.707Z,9.25
2022-08-26T04:27:33.778Z,9.02
2022-08-26T04:30:01.050Z,9.43
2022-08-26T04:32:27.716Z,7.72
2022-08-26T04:34:54.301Z,7.38
2022-08-26T04:37:25.112Z,7.15
2022-08-26T04:39:53.079Z,7.63
2022-08-26T04:42:22.797Z,7.22
2022-08-26T04:44:52.802Z,7.70
2022-08-26T04:47:19.389Z,7.28
2022-08-26T04:49:45.980Z,7.45
2022-08-26T04:52:12.734Z,7.53
2022-08-26T04:54:39.410Z,7.22
2022-08-26T04:57:08.687Z,7.70
2022-08-26T04:59:39.166Z,8.10
2022-08-26T05:02:07.029Z,8.02
2022-08-26T05:04:34.167Z,9.07
2022-08-26T05:07:02.770Z,7.35
2022-08-26T05:09:29.802Z,8.13
2022-08-26T05:11:57.262Z,7.95
2022-08-26T05:14:23.924Z,9.02
2022-08-26T05:16:51.441Z,8.18
2022-08-26T05:19:19.259Z,6.75
2022-08-26T05:21:47.174Z,7.65
2022-08-26T05:24:14.700Z,7.70
2022-08-26T05:26:41.643Z,7.55
2022-08-26T05:29:11.397Z,8.35
2022-08-26T05:31:38.102Z,7.90
2022-08-26T05:34:05.929Z,8.10
2022-08-26T05:36:35.925Z,7.90
2022-08-26T05:39:05.932Z,8.10
2022-08-26T05:41:36.416Z,7.47
2022-08-26T05:44:06.266Z,7.65
2022-08-26T05:46:34.565Z,7.97
2022-08-26T05:49:01.486Z,7.72
2022-08-26T05:51:30.407Z,7.38
2022-08-26T05:53:58.415Z,7.53
2022-08-26T05:56:26.230Z,7.95
2022-08-26T05:58:53.892Z,7.75
2022-08-26T06:01:26.439Z,6.93
2022-08-26T06:03:56.865Z,7.82
2022-08-26T06:06:32.321Z,6.88
2022-08-26T06:09:01.287Z,8.23
2022-08-26T06:11:32.168Z,9.05
2022-08-26T06:14:03.944Z,8.68
2022-08-26T06:16:32.715Z,8.90
2022-08-26T06:19:02.876Z,9.27
2022-08-26T06:21:32.152Z,9.95
2022-08-26T06:24:26.874Z,11.23
2022-08-26T06:26:56.914Z,9.98
2022-08-26T06:29:27.570Z,10.02
2022-08-26T06:31:56.204Z,9.50
2022-08-26T06:34:29.869Z,9.63
2022-08-26T06:36:59.799Z,9.90
2022-08-26T06:39:28.284Z,8.55
2022-08-26T06:41:57.800Z,9.35
2022-08-26T06:44:24.604Z,8.93
2022-08-26T06:46:51.382Z,10.10
2022-08-26T06:49:26.870Z,9.90
2022-08-26T06:51:56.521Z,10.45
2022-08-26T06:54:23.080Z,10.13
2022-08-26T06:56:49.758Z,11.50
2022-08-26T06:59:16.378Z,10.25
2022-08-26T07:01:46.836Z,9.48
2022-08-26T07:04:22.145Z,10.50
2022-08-26T07:06:52.656Z,9.75
2022-08-26T07:09:22.519Z,10.68
2022-08-26T07:11:49.589Z,10.35
2022-08-26T07:14:19.349Z,8.63
2022-08-26T07:16:49.054Z,9.07
2022-08-26T07:19:27.618Z,9.10
2022-08-26T07:22:03.421Z,8.93
2022-08-26T07:24:35.465Z,9.00
2022-08-26T07:27:06.776Z,9.32
2022-08-26T07:29:36.280Z,9.93
2022-08-26T07:32:04.206Z,8.63
2022-08-26T07:34:33.142Z,8.88
2022-08-26T07:37:00.452Z,8.93
2022-08-26T07:39:28.320Z,9.43
2022-08-26T07:41:59.590Z,8.77
2022-08-26T07:44:27.300Z,9.20
2022-08-26T07:46:54.268Z,9.48
2022-08-26T07:49:23.624Z,8.65
2022-08-26T07:51:51.398Z,7.57
2022-08-26T07:54:19.514Z,8.32
2022-08-26T07:56:48.659Z,7.50
2022-08-26T07:59:17.646Z,8.48
2022-08-26T08:01:45.910Z,9.27
2022-08-26T08:04:14.788Z,7.68
2022-08-26T08:06:41.889Z,8.20
2022-08-26T08:09:11.843Z,7.95
2022-08-26T08:11:38.455Z,8.38
2022-08-26T08:14:08.324Z,9.10
2022-08-26T08:16:37.253Z,7.72
2022-08-26T08:19:05.777Z,9.10
2022-08-26T08:21:32.400Z,7.47
2022-08-26T08:23:59.006Z,8.23
2022-08-26T08:26:26.613Z,7.93
2022-08-26T08:28:57.806Z,7.20
2022-08-26T08:31:56.176Z,7.43
2022-08-26T08:34:17.114Z,7.47
2022-08-26T08:36:46.369Z,7.32
2022-08-26T08:39:13.340Z,7.78
2022-08-26T08:42:09.104Z,6.35
2022-08-26T08:44:41.916Z,7.28
2022-08-26T08:47:20.739Z,7.85
2022-08-26T08:49:47.951Z,7.00
2022-08-26T08:52:35.177Z,7.32
2022-08-26T08:55:06.209Z,9.00
2022-08-26T08:58:02.594Z,7.35
2022-08-26T09:00:39.809Z,7.53
2022-08-26T09:03:35.522Z,7.93
2022-08-26T09:06:05.508Z,7.50
2022-08-26T09:08:35.847Z,6.82
2022-08-26T09:11:03.783Z,5.82
2022-08-26T09:13:31.737Z,6.95
2022-08-26T09:16:10.117Z,6.95
2022-08-26T09:19:04.951Z,7.50
2022-08-26T09:21:32.298Z,7.53
2022-08-26T09:24:00.301Z,7.38
2022-08-26T09:26:38.862Z,7.70
2022-08-26T09:29:24.699Z,6.53
2022-08-26T09:31:53.010Z,6.10
2022-08-26T09:34:27.131Z,7.15
2022-08-26T09:37:00.379Z,7.07
2022-08-26T09:39:37.851Z,7.03
2022-08-26T09:42:11.333Z,6.20
2022-08-26T09:45:01.899Z,6.57
2022-08-26T09:47:41.525Z,6.80
2022-08-26T09:50:28.919Z,6.65
2022-08-26T09:53:28.739Z,6.63
2022-08-26T09:58:45.169Z,6.88
2022-08-26T10:01:23.834Z,6.63
2022-08-26T10:03:51.493Z,5.80
2022-08-26T10:06:18.161Z,5.78
2022-08-26T10:08:52.222Z,7.60
2022-08-26T10:11:39.918Z,6.47
2022-08-26T10:14:21.459Z,5.97
2022-08-26T10:17:03.337Z,5.22
2022-08-26T10:19:55.864Z,5.90
2022-08-26T10:25:14.240Z,6.18
2022-08-26T10:28:00.134Z,5.95
2022-08-26T10:30:37.024Z,6.40
2022-08-26T10:33:12.966Z,6.30
2022-08-26T10:36:01.877Z,5.80
2022-08-26T10:38:40.292Z,5.25
2022-08-26T10:41:18.037Z,5.60
2022-08-26T10:44:00.383Z,5.00
2022-08-26T10:46:34.558Z,5.18
2022-08-26T10:49:11.077Z,4.60
2022-08-26T10:52:05.386Z,5.78
2022-08-26T10:54:53.498Z,6.10
2022-08-26T10:57:46.479Z,6.00
2022-08-26T11:00:50.892Z,5.43
2022-08-26T11:03:23.524Z,5.85
2022-08-26T11:06:18.256Z,5.55
2022-08-26T11:08:49.081Z,5.82
2022-08-26T11:14:05.797Z,5.20
2022-08-26T11:16:42.946Z,5.38
2022-08-26T11:19:18.862Z,5.15
2022-08-26T11:24:54.725Z,5.43
2022-08-26T11:27:27.189Z,5.65
2022-08-26T11:29:59.825Z,5.93
2022-08-26T11:32:45.362Z,6.60
2022-08-26T11:35:18.651Z,6.93
2022-08-26T11:37:48.203Z,6.77
2022-08-26T11:40:21.304Z,5.32
2022-08-26T11:43:03.312Z,5.80
2022-08-26T11:45:46.671Z,5.95
2022-08-26T11:48:27.050Z,6.65
2022-08-26T11:51:00.591Z,5.85
2022-08-26T11:53:29.854Z,5.38
2022-08-26T11:55:59.360Z,5.50
2022-08-26T11:58:27.723Z,6.22
2022-08-26T12:00:58.513Z,6.22
2022-08-26T12:03:45.791Z,6.32
2022-08-26T12:06:43.320Z,6.20
2022-08-26T12:09:25.730Z,5.68
2022-08-26T12:11:54.194Z,6.10
2022-08-26T12:14:27.336Z,5.47
2022-08-26T12:16:55.153Z,5.30
2022-08-26T12:19:32.746Z,5.97
2022-08-26T12:22:18.974Z,6.93
2022-08-26T12:24:58.584Z,5.80
2022-08-26T12:27:31.739Z,5.65
2022-08-26T12:30:19.290Z,5.05
2022-08-26T12:32:58.216Z,5.20
2022-08-26T12:35:26.974Z,5.25
2022-08-26T12:37:55.237Z,5.43
2022-08-26T12:40:33.397Z,5.07
2022-08-26T12:43:02.692Z,4.85
2022-08-26T12:45:33.705Z,4.93
2022-08-26T12:48:10.568Z,4.85
2022-08-26T12:50:44.318Z,4.60
2022-08-26T12:53:10.834Z,4.88
2022-08-26T12:55:45.391Z,5.05
2022-08-26T12:58:37.594Z,4.88
2022-08-26T13:01:04.325Z,5.32
2022-08-26T13:03:43.360Z,4.50
2022-08-26T13:06:15.684Z,4.55
2022-08-26T13:08:48.162Z,3.85
2022-08-26T13:11:34.684Z,3.80
2022-08-26T13:14:07.018Z,4.10
2022-08-26T13:16:35.239Z,3.95
2022-08-26T13:19:06.069Z,4.40
2022-08-26T13:21:48.394Z,4.57
2022-08-26T13:24:20.129Z,5.00
2022-08-26T13:26:51.891Z,3.70
2022-08-26T13:29:18.910Z,4.45
2022-08-26T13:31:46.317Z,4.40
2022-08-26T13:34:18.269Z,5.35
2022-08-26T13:36:50.614Z,5.25
2022-08-26T13:39:18.006Z,4.75
2022-08-26T13:41:44.968Z,4.65
2022-08-26T13:44:11.710Z,5.53
2022-08-26T13:46:40.316Z,5.32
2022-08-26T13:49:07.708Z,5.80
2022-08-26T13:51:34.414Z,4.63
2022-08-26T13:54:01.075Z,4.22
2022-08-26T13:56:29.744Z,4.20
2022-08-26T13:58:57.418Z,5.20
2022-08-26T14:01:24.883Z,3.78
2022-08-26T14:03:51.851Z,4.57
2022-08-26T14:06:19.355Z,4.97
2022-08-26T14:08:46.140Z,4.55
2022-08-26T14:11:13.083Z,4.18
2022-08-26T14:13:39.747Z,5.03
2022-08-26T14:16:15.999Z,4.82
2022-08-26T14:18:47.323Z,4.65
2022-08-26T14:21:16.987Z,5.32
2022-08-26T14:23:43.656Z,4.75
2022-08-26T14:26:11.673Z,4.22
2022-08-26T14:28:55.258Z,5.90
2022-08-26T14:31:23.607Z,4.70
2022-08-26T14:33:50.341Z,4.45
2022-08-26T14:36:28.921Z,4.60
2022-08-26T14:38:57.153Z,4.63
2022-08-26T14:41:25.506Z,4.50
2022-08-26T14:44:00.290Z,4.38
2022-08-26T14:46:32.011Z,4.88
2022-08-26T14:49:01.054Z,5.70
2022-08-26T14:51:29.866Z,5.05
2022-08-26T14:54:12.324Z,5.40
2022-08-26T14:56:42.732Z,5.53
2022-08-26T14:59:11.330Z,5.05
2022-08-26T15:01:39.010Z,5.40
2022-08-26T15:04:05.694Z,5.85
2022-08-26T15:06:36.009Z,5.63
2022-08-26T15:09:03.747Z,5.70
2022-08-26T15:11:32.949Z,5.50
2022-08-26T15:14:00.048Z,5.35
2022-08-26T15:16:28.493Z,5.20
2022-08-26T15:18:55.584Z,5.40
2022-08-26T15:21:24.887Z,5.00
2022-08-26T15:23:52.742Z,4.82
2022-08-26T15:26:20.390Z,5.80
2022-08-26T15:28:47.469Z,6.18
2022-08-26T15:31:14.221Z,5.70
2022-08-26T15:33:40.873Z,5.25
2022-08-26T15:36:08.744Z,5.75
2022-08-26T15:38:39.119Z,6.30
2022-08-26T15:41:08.662Z,5.22
2022-08-26T15:43:38.964Z,5.85
2022-08-26T15:46:10.950Z,5.50
2022-08-26T15:48:38.573Z,5.90
2022-08-26T15:51:06.199Z,5.88
2022-08-26T15:53:34.525Z,5.85
2022-08-26T15:56:02.113Z,5.60
2022-08-26T15:58:29.751Z,6.05
2022-08-26T16:00:57.362Z,6.38
2022-08-26T16:03:23.996Z,5.78
2022-08-26T16:05:50.741Z,6.15
2022-08-26T16:08:18.959Z,5.63
2022-08-26T16:10:50.513Z,5.70
2022-08-26T16:13:19.794Z,6.00
2022-08-26T16:15:48.075Z,6.25
2022-08-26T16:18:15.683Z,6.30
2022-08-26T16:21:12.442Z,6.20
2022-08-26T16:23:39.881Z,6.90
2022-08-26T16:26:11.447Z,7.70
2022-08-26T16:28:38.957Z,6.25
2022-08-26T16:31:06.920Z,6.60
2022-08-26T16:33:33.597Z,7.65
2022-08-26T16:36:00.274Z,6.60
2022-08-26T16:38:26.950Z,6.20
2022-08-26T16:40:53.506Z,6.75
2022-08-26T16:43:20.110Z,7.07
2022-08-26T16:45:46.791Z,7.03
2022-08-26T16:48:13.493Z,6.10
2022-08-26T16:50:42.197Z,6.18
2022-08-26T16:53:16.239Z,6.65
2022-08-26T16:55:50.445Z,6.00
2022-08-26T16:58:21.953Z,6.22
2022-08-26T17:00:49.670Z,6.55
2022-08-26T17:03:18.360Z,6.70
2022-08-26T17:05:44.996Z,7.15
2022-08-26T17:08:14.528Z,7.25
2022-08-26T17:10:51.601Z,8.90
2022-08-26T17:13:35.882Z,8.77
2022-08-26T17:16:05.049Z,7.43
2022-08-26T17:18:34.083Z,6.95
2022-08-26T17:21:03.486Z,7.00
2022-08-26T17:23:30.129Z,6.25
2022-08-26T17:25:57.186Z,5.75
2022-08-26T17:28:23.793Z,6.80
2022-08-26T17:30:50.698Z,5.97
2022-08-26T17:33:21.989Z,6.13
2022-08-26T17:35:51.470Z,5.38
2022-08-26T17:38:18.079Z,5.90
2022-08-26T17:40:45.724Z,5.80
2022-08-26T17:43:12.715Z,5.43
2022-08-26T17:45:40.568Z,5.25
2022-08-26T17:48:08.096Z,5.00
2022-08-26T17:50:35.010Z,5.47
2022-08-26T17:53:01.734Z,5.20
2022-08-26T17:55:29.091Z,5.05
2022-08-26T17:57:55.686Z,5.03
2022-08-26T18:00:26.494Z,4.80
2022-08-26T18:02:55.074Z,4.32
2022-08-26T18:05:22.297Z,4.53
2022-08-26T18:07:49.049Z,4.80
2022-08-26T18:10:18.186Z,4.88
2022-08-26T18:12:45.281Z,4.60
2022-08-26T18:15:13.742Z,5.00
2022-08-26T18:17:40.589Z,4.57
2022-08-26T18:20:15.080Z,4.07
2022-08-26T18:22:42.557Z,4.60
2022-08-26T18:25:12.428Z,3.45
2022-08-26T18:27:39.363Z,3.67
2022-08-26T18:30:11.356Z,3.60
2022-08-26T18:32:40.220Z,3.33
2022-08-26T18:35:07.936Z,3.30
2022-08-26T18:37:34.591Z,3.20
2022-08-26T18:40:01.297Z,3.00
2022-08-26T18:42:28.504Z,2.92
2022-08-26T18:44:55.080Z,3.17
2022-08-26T18:47:22.723Z,2.85
2022-08-26T18:49:50.936Z,3.33
2022-08-26T18:52:17.529Z,3.35
2022-08-26T18:54:44.211Z,2.90
2022-08-26T18:57:11.599Z,3.40
2022-08-26T18:59:38.903Z,3.20
2022-08-26T19:02:05.690Z,3.30
2022-08-26T19:04:33.669Z,3.75
2022-08-26T19:07:00.321Z,4.70
2022-08-26T19:09:27.280Z,5.63
2022-08-26T19:14:23.020Z,3.00
2022-08-26T19:16:52.483Z,3.17
2022-08-26T19:19:21.213Z,3.33
2022-08-26T19:21:47.866Z,3.20
2022-08-26T19:24:17.618Z,4.97
2022-08-26T19:26:50.341Z,4.10
2022-08-26T19:29:25.623Z,4.75
2022-08-26T19:31:52.253Z,3.65
2022-08-26T19:34:20.875Z,4.18
2022-08-26T19:36:48.279Z,2.72
2022-08-26T19:39:15.176Z,2.80
2022-08-26T19:41:41.864Z,2.50
2022-08-26T19:44:12.913Z,3.03
2022-08-26T19:46:39.738Z,2.97
2022-08-26T19:49:06.466Z,3.15
2022-08-26T19:51:34.752Z,2.95
2022-08-26T19:54:01.548Z,3.10
2022-08-26T19:56:38.033Z,3.00
2022-08-26T19:59:13.610Z,3.00
2022-08-26T20:01:40.520Z,2.88
2022-08-26T20:04:14.382Z,2.70
2022-08-26T20:06:40.993Z,2.75
2022-08-26T20:09:08.980Z,2.70
2022-08-26T20:11:36.025Z,3.50
2022-08-26T20:14:04.837Z,3.00
2022-08-26T20:16:32.851Z,2.95
2022-08-26T20:19:20.423Z,2.78
2022-08-26T20:21:47.169Z,3.00
2022-08-26T20:24:20.931Z,2.70
2022-08-26T20:26:48.938Z,2.90
2022-08-26T20:29:17.406Z,2.80
2022-08-26T20:31:46.757Z,2.90
2022-08-26T20:34:15.042Z,3.30
2022-08-26T20:36:42.575Z,2.70
2022-08-26T20:39:10.754Z,3.35
2022-08-26T20:41:38.347Z,3.30
2022-08-26T20:44:05.698Z,3.60
2022-08-26T20:46:34.670Z,3.50
2022-08-26T20:49:01.446Z,3.42
2022-08-26T20:51:28.583Z,3.85
2022-08-26T20:53:55.192Z,3.90
2022-08-26T20:56:24.353Z,3.78
2022-08-26T20:58:54.240Z,3.40
2022-08-26T21:01:24.462Z,3.50
2022-08-26T21:03:52.700Z,3.75
2022-08-26T21:06:25.632Z,3.85
2022-08-26T21:08:54.725Z,3.72
2022-08-26T21:11:23.135Z,4.78
2022-08-26T21:14:07.045Z,4.28
2022-08-26T21:16:41.840Z,3.65
2022-08-26T21:19:10.735Z,3.60
2022-08-26T21:21:37.916Z,3.70
2022-08-26T21:24:04.707Z,3.60
2022-08-26T21:26:31.477Z,3.60
2022-08-26T21:28:58.097Z,3.60
2022-08-26T21:31:25.543Z,3.70
2022-08-26T21:33:52.838Z,3.60
2022-08-26T21:36:20.234Z,3.40
2022-08-26T21:38:47.303Z,3.58
2022-08-26T21:41:18.753Z,3.60
2022-08-26T21:46:16.515Z,3.72
2022-08-26T21:48:50.683Z,3.60
2022-08-26T21:51:20.139Z,3.88
2022-08-26T21:53:47.360Z,3.33
2022-08-26T21:56:21.433Z,3.17
2022-08-26T21:58:48.680Z,3.90
2022-08-26T22:01:22.161Z,3.58
2022-08-26T22:03:52.656Z,3.85
2022-08-26T22:06:22.646Z,3.73
2022-08-26T22:08:50.365Z,3.92
2022-08-26T22:11:17.516Z,4.47
2022-08-26T22:13:45.682Z,4.50
2022-08-26T22:16:13.345Z,4.78
2022-08-26T22:18:43.273Z,5.38
2022-08-26T22:21:18.180Z,4.00
2022-08-26T22:23:45.442Z,4.13
2022-08-26T22:26:14.380Z,4.60
2022-08-26T22:28:41.038Z,4.38
2022-08-26T22:31:10.179Z,3.60
2022-08-26T22:33:41.116Z,4.10
2022-08-26T22:36:08.122Z,3.60
2022-08-26T22:38:34.771Z,3.78
2022-08-26T22:41:03.426Z,3.70
2022-08-26T22:43:33.265Z,3.60
2022-08-26T22:45:59.927Z,4.10
2022-08-26T22:48:26.971Z,4.65
2022-08-26T22:50:59.688Z,4.32
2022-08-26T22:53:27.042Z,4.53
2022-08-26T22:55:54.264Z,4.22
2022-08-26T22:58:21.631Z,3.45
2022-08-26T23:00:57.705Z,4.20
2022-08-26T23:03:26.638Z,3.97
2022-08-26T23:05:53.530Z,4.10
2022-08-26T23:08:20.483Z,3.42
2022-08-26T23:10:48.347Z,4.07
2022-08-26T23:13:17.113Z,4.10
2022-08-26T23:15:44.705Z,3.33
2022-08-26T23:18:13.634Z,4.45
2022-08-26T23:20:41.016Z,4.13
2022-08-26T23:23:08.333Z,3.55
2022-08-26T23:25:36.964Z,3.70
2022-08-26T23:28:04.194Z,3.58
2022-08-26T23:30:32.610Z,5.07
2022-08-26T23:32:59.583Z,3.70
2022-08-26T23:35:29.390Z,4.55
2022-08-26T23:37:57.797Z,4.43
2022-08-26T23:40:28.801Z,4.43
2022-08-26T23:42:57.315Z,4.10
2022-08-26T23:45:25.639Z,4.35
2022-08-26T23:47:54.652Z,4.20
2022-08-26T23:50:43.903Z,4.10
2022-08-26T23:53:11.041Z,4.35
2022-08-26T23:55:39.223Z,4.80
2022-08-26T23:58:06.605Z,3.88
